Tiempo atmosférico en la estación meteorológica de Ballobar, Huesca (178 m.)



Fecha
DESCASC
Temp. máxima en grados centígrados (hora)
DESCASC
Temp. mínima en grados centígrados (hora)
DESCASC
Temp. media en grados centígrados
DESCASC
Racha de viento máxima en m/sg (hora)
DESCASC
Velocidad máxima media en intervalos de 10 minutos(hora)
DESCASC
Precipitaciones diarias en mm
DESCASC
Precipitaciones de 00:00 a 06:00 en mm
DESCASC
Precipitaciones de 06:00 a 12:00 en mm
DESCASC
Precipitaciones de 12:00 a 18:00 en mm
DESCASC
Precipitaciones de 18:00 a 24:00 en mm
DESCASC
17-08-2018 30 (16:40) 19.3 (08:00) 24.6 15.28 (19:30) 10 (19:30) 5.8 5.6 0.2 0 0
16-08-2018 32.1 (16:30) 19.5 (05:10) 25.8 12.22 (23:40) 6.39 (23:40) 0 0 0 0 0
15-08-2018 30.2 (17:30) 15.5 (07:10) 22.9 5.28 (13:40) 3.06 (14:50) 0 0 0 0 0
14-08-2018 30.6 (18:30) 19.6 (07:10) 25.1 10.56 (00:40) 6.39 (10:00) 0 0 0 0 0
13-08-2018 33 (18:10) 18.2 (06:40) 25.6 11.39 (23:30) 7.22 (23:30) 0 0 0 0 0
12-08-2018 35.3 (15:50) 18.4 (00:00) 26.8 26.11 (18:30) 14.44 (18:40) 26 0 0 0 26
11-08-2018 33 (17:10) 19.9 (00:00) 26.4 10.28 (16:50) 6.39 (18:00) 0 0 0 0 0
10-08-2018 29.4 (17:50) 16.8 (00:00) 23.1 8.89 (16:40) 5.28 (17:40) 0 0 0 0 0
09-08-2018 31.4 (15:30) 21.7 (00:00) 26.6 14.17 (01:00) 7.5 (00:30) 1.8 1.8 0 0 0
08-08-2018 34.1 (15:50) 22 (00:00) 28 18.89 (19:20) 11.94 (19:20) 2.2 0 0 0 2.2
07-08-2018 34.9 (15:20) 23 (00:00) 29 14.17 (19:50) 9.72 (19:40) 0 0 0 0 0
06-08-2018 37.6 (17:30) 21.8 (00:00) 29.7 10.28 (19:40) 6.11 (19:20) 0 0 0 0 0
05-08-2018 38.1 (17:40) 21.4 (00:00) 29.7 8.89 (16:20) 5 (21:20) 0 0 0 0 0
04-08-2018 38.6 (16:40) 23.1 (07:20) 30.8 5.56 (14:40) 3.33 (01:10) 0 0 0 0 0
03-08-2018 37.7 (18:20) 20.9 (00:00) 29.3 7.78 (21:00) 4.72 (20:30) 0 0 0 0 0
02-08-2018 38.1 (18:30) 20.2 (00:00) 29.1 7.5 (19:50) 5.83 (19:50) 0 0 0 0 0
01-08-2018 35.9 (17:40) 21.5 (05:50) 28.7 7.5 (19:50) 4.72 (19:50) 0 0 0 0 0
31-07-2018 36.2 (18:10) 19.8 (00:00) 28 8.06 (21:00) 5 (21:00) 0 0 0 0 0
30-07-2018 36.5 (17:10) 20.7 (00:00) 28.6 8.61 (18:10) 5.56 (18:10) 0 0 0 0 0
29-07-2018 35.7 (15:30) 22 (00:00) 28.9 8.89 (15:20) 5 (01:30) 0 0 0 0 0
28-07-2018 35.3 (17:10) 19.2 (00:00) 27.3 7.78 (13:30) 4.17 (15:00) 0 0 0 0 0
27-07-2018 35.8 (17:00) 19.4 (00:00) 27.6 11.94 (03:10) 8.06 (03:10) 1.2 1.2 0 0 0
26-07-2018 36.9 (17:30) 19 (00:00) 28 8.89 (18:40) 6.11 (19:10) 0 0 0 0 0
25-07-2018 35.3 (17:50) 19.8 (00:00) 27.5 9.72 (18:10) 6.67 (18:10) 0 0 0 0 0
24-07-2018 36.3 (18:20) 21.4 (00:00) 28.8 15.83 (20:10) 9.44 (20:10) 0 0 0 0 0
23-07-2018 34.2 (18:00) 16.7 (00:00) 25.5 7.78 (20:40) 5.28 (20:40) 0 0 0 0 0
22-07-2018 30 (17:30) 17.2 (00:00) 23.6 8.89 (00:20) 6.67 (00:20) 1 0 1 0 0
21-07-2018 29.6 (17:30) 16.5 (00:00) 23.1 12.22 (00:30) 8.89 (00:30) 0 0 0 0 0
20-07-2018 33.3 (17:50) 18.9 (00:00) 26.1 17.5 (20:10) 6.39 (20:20) 0.8 0 0 0 0.8

Gráficas

Temp. máximas Temp. mínimas Temp. medias Precipitaciones Rachas de viento máximas Velocidades máximas media en intervalos de 10 minutos

Datos horarios

Fecha y hora oficial Temperatura (ºC) Velocidad del viento (km/h) Dirección del viento Racha (km/h) Dirección de racha Precipitación (mm) Presión (hPa) Tendencia (hPa) Humedad (%)
2018-08-18 23:00:00 21.4 3 Oeste 6 Oeste 0 -- -- 67
2018-08-18 22:00:00 22.8 2 Oeste 6 Oeste 0 -- -- 61
2018-08-18 21:00:00 25.5 2 Norte 10 Nordeste 0 -- -- 52
2018-08-18 20:00:00 27.3 8 Nordeste 13 Nordeste 0 -- -- 48
2018-08-18 19:00:00 27.8 7 Nordeste 13 Nordeste 0 -- -- 42
2018-08-18 18:00:00 28.1 8 Nordeste 18 Este 0 -- -- 42
2018-08-18 17:00:00 27.7 9 Nordeste 17 Este 0 -- -- 43
2018-08-18 16:00:00 27.3 8 Nordeste 14 Nordeste 0 -- -- 44
2018-08-18 15:00:00 25.7 9 Nordeste 18 Nordeste 0 -- -- 46
2018-08-18 14:00:00 24.7 9 Este 20 Este 0 -- -- 49
2018-08-18 13:00:00 23.4 6 Nordeste 15 Nordeste 0 -- -- 50
2018-08-18 12:00:00 22.3 14 Este 19 Este 0 -- -- 53
2018-08-18 11:00:00 20.2 10 Noroeste 19 Noroeste 0 -- -- 56
2018-08-18 10:00:00 18.1 14 Oeste 25 Oeste 0 -- -- 62
2018-08-18 09:00:00 16.7 10 Oeste 17 Oeste 0 -- -- 68
2018-08-18 08:00:00 14.6 6 Oeste 10 Oeste 0 -- -- 78
2018-08-18 07:00:00 14.5 6 Oeste 14 Sudoeste 0 -- -- 79
2018-08-18 06:00:00 14.9 8 Sudoeste 15 Sudoeste 0 -- -- 76
2018-08-18 05:00:00 16.3 9 Sudoeste 17 Sudoeste 0 -- -- 68
2018-08-18 04:00:00 16.8 13 Sudoeste 21 Sudoeste 0 -- -- 66
2018-08-18 03:00:00 17.2 13 Sudoeste 23 Oeste 0 -- -- 64
2018-08-18 02:00:00 17.8 13 Oeste 24 Noroeste 0 -- -- 63
2018-08-18 01:00:00 19 7 Oeste 12 Oeste 0 -- -- 80
2018-08-18 00:00:00 19.5 4 Noroeste 8 Oeste 0 -- -- 79
2018-08-17 23:00:00 19.5 4 Noroeste 13 Nordeste 0 -- -- 79
2018-08-17 22:00:00 19.6 5 Norte 23 Nordeste 0 -- -- 78
2018-08-17 21:00:00 19.6 19 Nordeste 43 Este 0 -- -- 76
2018-08-17 20:00:00 20.1 26 Este 55 Este 0 -- -- 72
2018-08-17 19:00:00 28.1 19 Noroeste 53 Este 0 -- -- 46
2018-08-17 18:00:00 28.9 21 Oeste 36 Sudoeste 0 -- -- 47
2018-08-17 17:00:00 29.9 9 Oeste 45 Sudoeste 0 -- -- 47
2018-08-17 16:00:00 29.1 13 Sudoeste 27 Sudoeste 0 -- -- 45
2018-08-17 15:00:00 28.2 11 Oeste 24 Noroeste 0 -- -- 56
2018-08-17 14:00:00 27.4 11 Oeste 20 Oeste 0 -- -- 56
2018-08-17 13:00:00 26.3 15 Oeste 22 Oeste 0 -- -- 59
2018-08-17 12:00:00 25 8 Noroeste 17 Noroeste 0 -- -- 64
2018-08-17 11:00:00 23.7 8 Noroeste 18 Oeste 0 -- -- 65
2018-08-17 10:00:00 22.5 12 Oeste 26 Sudoeste 0.2 -- -- 72
2018-08-17 09:00:00 20.5 14 Oeste 21 Oeste 0 -- -- 84
2018-08-17 08:00:00 19.3 12 Oeste 18 Oeste 0 -- -- 89
2018-08-17 07:00:00 19.6 11 Sudoeste 16 Sudoeste 0 -- -- 90
2018-08-17 06:00:00 19.6 8 Sudoeste 13 Sudoeste 0 -- -- 92
2018-08-17 05:00:00 19.6 3 Este 13 Este 0 -- -- 92
2018-08-17 04:00:00 20.1 8 Nordeste 22 Oeste 0 -- -- 91
2018-08-17 03:00:00 19.7 10 Sudoeste 20 Sudoeste 0.4 -- -- 88
2018-08-17 02:00:00 20.3 11 Oeste 31 Oeste 5.2 -- -- 82
2018-08-17 01:00:00 21.9 7 Oeste 39 Noroeste 0 -- -- 74
2018-08-17 00:00:00 21.9 15 Noroeste 44 Noroeste 0 -- -- 61
2018-08-16 23:00:00 25.8 22 Sudoeste 35 Oeste 0 -- -- 60
2018-08-16 22:00:00 26.7 8 Sur 23 Sudoeste 0 -- -- 62
2018-08-16 21:00:00 27.3 9 Sur 27 Sur 0 -- -- 61
2018-08-16 20:00:00 28.5 10 Sur 31 Sur 0 -- -- 57
2018-08-16 19:00:00 29 13 Sudeste 31 Sur 0 -- -- 56
2018-08-16 18:00:00 30.4 12 Sudeste 33 Sur 0 -- -- 47
2018-08-16 17:00:00 31.3 16 Este 28 Nordeste 0 -- -- 51
2018-08-16 16:00:00 31.6 9 Nordeste 18 Este 0 -- -- 51
2018-08-16 15:00:00 31.1 9 Nordeste 17 Nordeste 0 -- -- 54
2018-08-16 14:00:00 29.6 7 Nordeste 19 Nordeste 0 -- -- 58
2018-08-16 13:00:00 29.3 9 Nordeste 21 Este 0 -- -- 60
2018-08-16 12:00:00 27.7 10 Este 18 Este 0 -- -- 66
2018-08-16 11:00:00 26.7 10 Este 17 Este 0 -- -- 68
2018-08-16 10:00:00 23.8 5 Nordeste 13 Nordeste 0 -- -- 76
2018-08-16 09:00:00 21.9 4 Nordeste 12 Este 0 -- -- 80
2018-08-16 08:00:00 19.7 3 Nordeste 6 Nordeste 0 -- -- 88
2018-08-16 07:00:00 20 5 Nordeste 14 Nordeste 0 -- -- 87
2018-08-16 06:00:00 20.1 8 Este 14 Nordeste 0 -- -- 87
2018-08-16 05:00:00 19.6 0 Calma 6 Oeste 0 -- -- 87
2018-08-16 04:00:00 20.7 0 Calma 10 Nordeste 0 -- -- 83
2018-08-16 03:00:00 21.6 5 Nordeste 10 Este 0 -- -- 80
2018-08-16 02:00:00 22.2 6 Nordeste 16 Este 0 -- -- 82
2018-08-16 01:00:00 22.7 10 Nordeste 13 Nordeste 0 -- -- 81
2018-08-16 00:00:00 24 4 Sudoeste 9 Sudoeste 0 -- -- 74
2018-08-15 23:00:00 25.5 9 Sudoeste 17 Este 0 -- -- 68
2018-08-15 22:00:00 26.1 2 Sudeste 9 Este 0 -- -- 56
2018-08-15 21:00:00 27.4 4 Nordeste 10 Nordeste 0 -- -- 41
2018-08-15 20:00:00 28.7 10 Nordeste 13 Nordeste 0 -- -- 41
2018-08-15 19:00:00 29.7 10 Nordeste 15 Nordeste 0 -- -- 39
2018-08-15 18:00:00 30 7 Nordeste 17 Este 0 -- -- 40
2018-08-15 17:00:00 30.1 10 Nordeste 18 Este 0 -- -- 40
2018-08-15 16:00:00 29.1 10 Este 18 Este 0 -- -- 42
2018-08-15 15:00:00 27.9 10 Nordeste 17 Nordeste 0 -- -- 45
2018-08-15 14:00:00 26.6 9 Nordeste 19 Nordeste 0 -- -- 49
2018-08-15 13:00:00 25.1 8 Este 18 Este 0 -- -- 53
2018-08-15 12:00:00 23.6 10 Este 16 Este 0 -- -- 57
2018-08-15 11:00:00 22.3 9 Nordeste 15 Nordeste 0 -- -- 62
2018-08-15 10:00:00 20.5 6 Sudoeste 10 Oeste 0 -- -- 65
2018-08-15 09:00:00 18.6 6 Sudoeste 12 Sudoeste 0 -- -- 72
2018-08-15 08:00:00 16.4 8 Sudoeste 15 Sudoeste 0 -- -- 80
2018-08-15 07:00:00 15.6 9 Oeste 11 Sudoeste 0 -- -- 82
2018-08-15 06:00:00 16.2 5 Oeste 13 Sudoeste 0 -- -- 79
2018-08-15 05:00:00 16.5 5 Sudoeste 10 Oeste 0 -- -- 79
2018-08-15 04:00:00 17 6 Oeste 10 Oeste 0 -- -- 78
2018-08-15 03:00:00 17.8 8 Oeste 15 Sudoeste 0 -- -- 75
2018-08-15 02:00:00 19.1 8 Sudoeste 14 Sudoeste 0 -- -- 69
2018-08-15 01:00:00 19.3 6 Sudoeste 10 Sudoeste 0 -- -- 72
2018-08-15 00:00:00 20.3 4 Oeste 8 Noroeste 0 -- -- 69
2018-08-14 23:00:00 21.7 4 Noroeste 7 Noroeste 0 -- -- 64
2018-08-14 22:00:00 24.2 8 Oeste 17 Oeste 0 -- -- 54
2018-08-14 21:00:00 26.6 8 Oeste 20 Oeste 0 -- -- 48
2018-08-14 20:00:00 29.3 13 Oeste 23 Oeste 0 -- -- 39
2018-08-14 19:00:00 30.5 10 Oeste 22 Noroeste 0 -- -- 35
2018-08-14 18:00:00 30.2 13 Oeste 28 Oeste 0 -- -- 34
2018-08-14 17:00:00 30.1 17 Oeste 32 Noroeste 0 -- -- 35
2018-08-14 16:00:00 29.5 17 Oeste 31 Oeste 0 -- -- 37
2018-08-14 15:00:00 28.5 14 Oeste 30 Oeste 0 -- -- 40
2018-08-14 14:00:00 27 16 Oeste 31 Oeste 0 -- -- 43
2018-08-14 13:00:00 26.1 19 Oeste 37 Oeste 0 -- -- 47
2018-08-14 12:00:00 24.9 20 Oeste 32 Oeste 0 -- -- 50
2018-08-14 11:00:00 23.8 17 Oeste 31 Oeste 0 -- -- 54
2018-08-14 10:00:00 22 23 Oeste 34 Oeste 0 -- -- 59
2018-08-14 09:00:00 21.5 13 Oeste 25 Oeste 0 -- -- 60
2018-08-14 08:00:00 20.5 0 Calma 29 Oeste 0 -- -- 66
2018-08-14 07:00:00 19.7 20 Oeste 31 Oeste 0 -- -- 68
2018-08-14 06:00:00 20.2 14 Oeste 28 Oeste 0 -- -- 66
2018-08-14 05:00:00 20.9 19 Oeste 31 Noroeste 0 -- -- 62
2018-08-14 04:00:00 20.6 3 Sudeste 17 Oeste 0 -- -- 63
2018-08-14 03:00:00 21.4 12 Oeste 27 Oeste 0 -- -- 61
2018-08-14 02:00:00 22.1 8 Noroeste 29 Noroeste 0 -- -- 62
2018-08-14 01:00:00 23.3 16 Noroeste 38 Noroeste 0 -- -- 58
2018-08-14 00:00:00 25.5 18 Noroeste 41 Oeste 0 -- -- 50
2018-08-13 23:00:00 26.8 24 Oeste 40 Oeste 0 -- -- 45
2018-08-13 22:00:00 28.2 23 Oeste 33 Oeste 0 -- -- 48
2018-08-13 21:00:00 29.7 5 Oeste 14 Oeste 0 -- -- 52
2018-08-13 20:00:00 31.2 5 Nordeste 11 Noroeste 0 -- -- 47
2018-08-13 19:00:00 31.6 8 Nordeste 13 Nordeste 0 -- -- 43
2018-08-13 18:00:00 32.7 4 Nordeste 15 Oeste 0 -- -- 43
2018-08-13 17:00:00 32.3 8 Nordeste 17 Nordeste 0 -- -- 43
2018-08-13 16:00:00 30.8 8 Nordeste 17 Oeste 0 -- -- 48
2018-08-13 15:00:00 30 8 Nordeste 16 Este 0 -- -- 50
2018-08-13 14:00:00 29.1 7 Este 15 Nordeste 0 -- -- 56
2018-08-13 13:00:00 27.5 5 Oeste 13 Noroeste 0 -- -- 56
2018-08-13 12:00:00 26.4 4 Norte 12 Este 0 -- -- 63
2018-08-13 11:00:00 24.3 7 Este 14 Nordeste 0 -- -- 72
2018-08-13 10:00:00 22.1 5 Este 9 Norte 0 -- -- 80
2018-08-13 09:00:00 21 4 Noroeste 10 Oeste 0 -- -- 83
2018-08-13 08:00:00 18.9 2 Sur 5 Sudeste 0 -- -- 92
2018-08-13 07:00:00 18.3 2 Norte 7 Noroeste 0 -- -- 93
2018-08-13 06:00:00 18.5 0 Calma 6 Sudeste 0 -- -- 94
2018-08-13 05:00:00 18.9 2 Sudoeste 7 Noroeste 0 -- -- 93
2018-08-13 04:00:00 19.2 0 Calma 4 Nordeste 0 -- -- 94
2018-08-13 03:00:00 19.2 2 Nordeste 6 Nordeste 0 -- -- 94
2018-08-13 02:00:00 19.3 2 Este 6 Nordeste 0 -- -- 93
2018-08-13 01:00:00 19.7 0 Calma 9 Sudoeste 0 -- -- 90
2018-08-13 00:00:00 20.1 9 Sudoeste 14 Sudoeste 0 -- -- 87
2018-08-12 23:00:00 20.4 3 Nordeste 26 Norte 0 -- -- 87
2018-08-12 22:00:00 20.3 11 Nordeste 19 Nordeste 0 -- -- 87
2018-08-12 21:00:00 20.3 6 Este 24 Nordeste 0.4 -- -- 86
2018-08-12 20:00:00 20.2 29 Este 41 Este 1 -- -- 84
2018-08-12 19:00:00 19.2 10 Norte 94 Oeste 24.6 -- -- 89
2018-08-12 18:00:00 30.4 19 Sudoeste 44 Sudeste 0 -- -- 58
2018-08-12 17:00:00 32.7 26 Este 42 Sudeste 0 -- -- 49
2018-08-12 16:00:00 35 21 Este 37 Este 0 -- -- 43
2018-08-12 15:00:00 34.4 15 Este 27 Este 0 -- -- 45
2018-08-12 14:00:00 32.5 14 Nordeste 27 Este 0 -- -- 52
2018-08-12 13:00:00 31.3 14 Este 22 Este 0 -- -- 56
2018-08-12 12:00:00 29.7 11 Nordeste 22 Este 0 -- -- 61
2018-08-12 11:00:00 28.2 12 Este 21 Este 0 -- -- 67
2018-08-12 10:00:00 25.7 8 Nordeste 12 Nordeste 0 -- -- 75
2018-08-12 09:00:00 24.4 3 Nordeste 7 Nordeste 0 -- -- 78
2018-08-12 08:00:00 22.8 6 Nordeste 14 Este 0 -- -- 84
2018-08-12 07:00:00 22.3 10 Nordeste 15 Nordeste 0 -- -- 86
2018-08-12 06:00:00 22.1 8 Nordeste 13 Nordeste 0 -- -- 86
2018-08-12 05:00:00 22.7 6 Nordeste 11 Nordeste 0 -- -- 84
2018-08-12 04:00:00 22.8 3 Norte 10 Este 0 -- -- 84
2018-08-12 03:00:00 23.4 5 Este 13 Este 0 -- -- 82
2018-08-12 02:00:00 23.8 9 Nordeste 15 Nordeste 0 -- -- 82
2018-08-12 01:00:00 24.4 5 Nordeste 9 Nordeste 0 -- -- 81
2018-08-12 00:00:00 24.9 5 Nordeste 15 Este 0 -- -- 79
2018-08-11 23:00:00 25.2 7 Este 11 Este 0 -- -- 78
2018-08-11 22:00:00 26.5 7 Sudeste 22 Sudeste 0 -- -- 72
2018-08-11 21:00:00 27.6 9 Sudeste 31 Sur 0 -- -- 68
2018-08-11 20:00:00 29.8 15 Sudeste 36 Este 0 -- -- 59
2018-08-11 19:00:00 31.5 17 Este 32 Sudeste 0 -- -- 54
2018-08-11 18:00:00 32.4 23 Este 34 Este 0 -- -- 49
2018-08-11 17:00:00 32.9 18 Este 37 Nordeste 0 -- -- 46
2018-08-11 16:00:00 32.5 15 Este 26 Nordeste 0 -- -- 47
2018-08-11 15:00:00 31.3 8 Este 25 Este 0 -- -- 50
2018-08-11 14:00:00 29.5 7 Nordeste 19 Nordeste 0 -- -- 55
2018-08-11 13:00:00 29 5 Nordeste 19 Este 0 -- -- 56
2018-08-11 12:00:00 27.9 8 Este 16 Este 0 -- -- 61
2018-08-11 11:00:00 25.7 8 Este 15 Este 0 -- -- 68
2018-08-11 10:00:00 24.1 6 Este 12 Nordeste 0 -- -- 71
2018-08-11 09:00:00 22.5 5 Este 8 Este 0 -- -- 76
2018-08-11 08:00:00 20.6 0 Calma 4 Este 0 -- -- 83
2018-08-11 07:00:00 20.1 2 Este 5 Nordeste 0 -- -- 85
2018-08-11 06:00:00 21 5 Nordeste 12 Este 0 -- -- 81
2018-08-11 05:00:00 21.5 9 Nordeste 13 Este 0 -- -- 79
2018-08-11 04:00:00 22 6 Nordeste 13 Este 0 -- -- 77
2018-08-11 03:00:00 22.6 0 Calma 13 Este 0 -- -- 76
2018-08-11 02:00:00 22.8 8 Nordeste 17 Este 0 -- -- 74
2018-08-11 01:00:00 23.2 6 Este 13 Nordeste 0 -- -- 71
2018-08-11 00:00:00 24.3 8 Este 15 Sur 0 -- -- 64
2018-08-10 23:00:00 25.2 7 Sudeste 22 Sudeste 0 -- -- 61
2018-08-10 22:00:00 26.5 9 Sudeste 17 Sudeste 0 -- -- 57
2018-08-10 21:00:00 27.5 6 Este 12 Este 0 -- -- 50
2018-08-10 20:00:00 28.1 7 Este 17 Este 0 -- -- 51
2018-08-10 19:00:00 28.6 11 Este 25 Este 0 -- -- 47
2018-08-10 18:00:00 29.2 17 Este 28 Nordeste 0 -- -- 45
2018-08-10 17:00:00 28.8 18 Este 32 Este 0 -- -- 45
2018-08-10 16:00:00 28.3 12 Nordeste 24 Este 0 -- -- 47
2018-08-10 15:00:00 27.3 12 Este 23 Este 0 -- -- 48
2018-08-10 14:00:00 24.8 8 Nordeste 15 Este 0 -- -- 53
2018-08-10 13:00:00 24.1 8 Nordeste 15 Norte 0 -- -- 52
2018-08-10 12:00:00 23.1 7 Este 15 Nordeste 0 -- -- 54
2018-08-10 11:00:00 21.4 7 Nordeste 12 Nordeste 0 -- -- 59
2018-08-10 10:00:00 19 6 Nordeste 10 Nordeste 0 -- -- 66
2018-08-10 09:00:00 19.1 2 Sur 8 Sudoeste 0 -- -- 65
2018-08-10 08:00:00 16.9 4 Sudoeste 13 Sudoeste 0 -- -- 72
2018-08-10 07:00:00 17 6 Sudoeste 18 Sudoeste 0 -- -- 71
2018-08-10 06:00:00 17.8 13 Sudoeste 21 Sudoeste 0 -- -- 69
2018-08-10 05:00:00 18.2 9 Sudoeste 26 Sur 0 -- -- 67
2018-08-10 04:00:00 18.5 12 Sudoeste 18 Oeste 0 -- -- 65
2018-08-10 03:00:00 19.6 14 Sudoeste 21 Sudoeste 0 -- -- 61
2018-08-10 02:00:00 20.5 10 Sudoeste 15 Sudoeste 0 -- -- 59
2018-08-10 01:00:00 21.1 3 Oeste 17 Oeste 0 -- -- 58
2018-08-10 00:00:00 22.4 9 Oeste 21 Oeste 0 -- -- 53
2018-08-09 23:00:00 23.6 12 Oeste 28 Oeste 0 -- -- 50
2018-08-09 22:00:00 25.3 18 Noroeste 36 Oeste 0 -- -- 47
2018-08-09 21:00:00 27.6 18 Oeste 30 Oeste 0 -- -- 43
2018-08-09 20:00:00 29.8 11 Oeste 21 Oeste 0 -- -- 40
2018-08-09 19:00:00 31.2 16 Oeste 27 Oeste 0 -- -- 37
2018-08-09 18:00:00 31.2 18 Oeste 32 Noroeste 0 -- -- 37
2018-08-09 17:00:00 31.1 21 Oeste 34 Oeste 0 -- -- 39
2018-08-09 16:00:00 30.9 22 Oeste 32 Oeste 0 -- -- 43
2018-08-09 15:00:00 30.6 22 Noroeste 35 Noroeste 0 -- -- 45
2018-08-09 14:00:00 29.9 21 Oeste 33 Noroeste 0 -- -- 54
2018-08-09 13:00:00 28 11 Oeste 22 Oeste 0 -- -- 65
2018-08-09 12:00:00 27.8 15 Oeste 26 Oeste 0 -- -- 68
2018-08-09 11:00:00 27.3 4 Oeste 12 Este 0 -- -- 73
2018-08-09 10:00:00 25.5 8 Nordeste 14 Nordeste 0 -- -- 77
2018-08-09 09:00:00 24 7 Nordeste 12 Este 0 -- -- 82
2018-08-09 08:00:00 22 0 Calma 4 Noroeste 0 -- -- 90
2018-08-09 07:00:00 21.8 0 Calma 10 Nordeste 0 -- -- 88
2018-08-09 06:00:00 22.3 7 Nordeste 21 Este 0 -- -- 87
2018-08-09 05:00:00 22.7 13 Este 25 Este 0 -- -- 85
2018-08-09 04:00:00 23.4 14 Este 33 Sudeste 0 -- -- 81
2018-08-09 03:00:00 23.1 23 Este 32 Este 1.8 -- -- 83
2018-08-09 02:00:00 23.2 18 Este 33 Este 0 -- -- 79
2018-08-09 01:00:00 24.2 27 Este 51 Sudeste 0 -- -- 77
2018-08-09 00:00:00 23.3 17 Este 26 Este 0 -- -- 84
2018-08-08 23:00:00 23.5 11 Nordeste 21 Norte 0.2 -- -- 86
2018-08-08 22:00:00 24.4 13 Nordeste 31 Este 1 -- -- 80
2018-08-08 21:00:00 25.6 12 Sudoeste 55 Este 0 -- -- 72
2018-08-08 20:00:00 26 23 Este 68 Sudeste 0.4 -- -- 49
2018-08-08 19:00:00 27.1 30 Este 48 Este 0.6 -- -- 70
2018-08-08 18:00:00 31.1 21 Sudeste 39 Sudeste 0 -- -- 49
2018-08-08 17:00:00 32.9 25 Este 39 Este 0 -- -- 43
2018-08-08 16:00:00 34.1 23 Este 44 Este 0 -- -- 42
2018-08-08 15:00:00 33.6 25 Este 42 Este 0 -- -- 44
2018-08-08 14:00:00 32.4 22 Este 36 Este 0 -- -- 48
2018-08-08 13:00:00 31.3 18 Este 36 Este 0 -- -- 54
2018-08-08 12:00:00 29.9 20 Este 30 Este 0 -- -- 60
2018-08-08 11:00:00 27.7 17 Este 23 Este 0 -- -- 64
2018-08-08 10:00:00 26 15 Este 22 Este 0 -- -- 62
2018-08-08 09:00:00 23.3 6 Nordeste 10 Nordeste 0 -- -- 65
2018-08-08 08:00:00 22.1 4 Nordeste 6 Este 0 -- -- 71
2018-08-08 07:00:00 22.3 3 Sudoeste 12 Este 0 -- -- 66
2018-08-08 06:00:00 22.7 8 Nordeste 14 Este 0 -- -- 66
2018-08-08 05:00:00 23.2 11 Nordeste 17 Nordeste 0 -- -- 64
2018-08-08 04:00:00 23.2 3 Nordeste 9 Nordeste 0 -- -- 61
2018-08-08 03:00:00 23.7 9 Nordeste 20 Nordeste 0 -- -- 58
2018-08-08 02:00:00 24.8 12 Nordeste 19 Nordeste 0 -- -- 55
2018-08-08 01:00:00 25.7 12 Nordeste 19 Este 0 -- -- 57
2018-08-08 00:00:00 27.1 17 Este 32 Este 0 -- -- 51
2018-08-07 23:00:00 26.8 18 Nordeste 38 Nordeste 0 -- -- 50
2018-08-07 22:00:00 27.9 27 Nordeste 42 Nordeste 0 -- -- 51
2018-08-07 21:00:00 29 22 Este 42 Este 0 -- -- 60
2018-08-07 20:00:00 29.6 27 Este 51 Este 0 -- -- 61
2018-08-07 19:00:00 31.9 11 Sudeste 31 Sudeste 0 -- -- 51
2018-08-07 18:00:00 32.7 19 Sudeste 42 Este 0 -- -- 50
2018-08-07 17:00:00 34 26 Este 47 Este 0 -- -- 47
2018-08-07 16:00:00 34.8 24 Este 42 Este 0 -- -- 44
2018-08-07 15:00:00 34.7 24 Este 42 Este 0 -- -- 46
2018-08-07 14:00:00 34.7 22 Este 39 Este 0 -- -- 45
2018-08-07 13:00:00 33.4 18 Este 32 Este 0 -- -- 49
2018-08-07 12:00:00 31.6 20 Este 30 Este 0 -- -- 55
2018-08-07 11:00:00 29.4 16 Este 30 Este 0 -- -- 62
2018-08-07 10:00:00 27.9 13 Este 20 Este 0 -- -- 68
2018-08-07 09:00:00 25.7 8 Este 13 Este 0 -- -- 70
2018-08-07 08:00:00 23.8 2 Sudeste 8 Este 0 -- -- 77
2018-08-07 07:00:00 23.2 0 Calma 7 Este 0 -- -- 77
2018-08-07 06:00:00 24.3 5 Este 23 Este 0 -- -- 74
2018-08-07 05:00:00 24.6 10 Este 17 Este 0 -- -- 73
2018-08-07 04:00:00 25 6 Nordeste 16 Este 0 -- -- 71
2018-08-07 03:00:00 25.4 12 Nordeste 22 Este 0 -- -- 66
2018-08-07 02:00:00 26.1 12 Este 18 Este 0 -- -- 59
2018-08-07 01:00:00 26.9 10 Nordeste 19 Este 0 -- -- 57
2018-08-07 00:00:00 28.1 9 Nordeste 16 Nordeste 0 -- -- 56
2018-08-06 23:00:00 28.9 8 Nordeste 22 Este 0 -- -- 55
2018-08-06 22:00:00 30.5 5 Este 19 Sudeste 0 -- -- 52
2018-08-06 21:00:00 32.2 14 Sudeste 36 Sudeste 0 -- -- 45
2018-08-06 20:00:00 34.3 20 Sudeste 37 Sudeste 0 -- -- 44
2018-08-06 19:00:00 36.1 12 Este 31 Este 0 -- -- 41
2018-08-06 18:00:00 36.6 20 Este 29 Este 0 -- -- 40
2018-08-06 17:00:00 37.1 12 Nordeste 18 Nordeste 0 -- -- 36
2018-08-06 16:00:00 36.9 10 Este 19 Nordeste 0 -- -- 36
2018-08-06 15:00:00 35.6 11 Este 17 Este 0 -- -- 40
2018-08-06 14:00:00 34.5 11 Nordeste 18 Nordeste 0 -- -- 42
2018-08-06 13:00:00 33 10 Este 25 Sudeste 0 -- -- 45
2018-08-06 12:00:00 30.8 10 Nordeste 16 Este 0 -- -- 52
2018-08-06 11:00:00 29 8 Este 12 Este 0 -- -- 58
2018-08-06 10:00:00 27.5 6 Nordeste 16 Nordeste 0 -- -- 58
2018-08-06 09:00:00 25 6 Este 9 Nordeste 0 -- -- 70
2018-08-06 08:00:00 22.5 4 Este 8 Este 0 -- -- 78
2018-08-06 07:00:00 21.8 4 Noroeste 6 Oeste 0 -- -- 74
2018-08-06 06:00:00 22.8 3 Nordeste 5 Este 0 -- -- 73
2018-08-06 05:00:00 23.7 0 Calma 5 Este 0 -- -- 71
2018-08-06 04:00:00 25.3 2 Oeste 5 Norte 0 -- -- 63
2018-08-06 03:00:00 26.5 0 Calma 15 Nordeste 0 -- -- 62
2018-08-06 02:00:00 27.2 8 Nordeste 23 Sudeste 0 -- -- 61
2018-08-06 01:00:00 27.8 9 Este 20 Nordeste 0 -- -- 58
2018-08-06 00:00:00 29.1 7 Este 17 Este 0 -- -- 51
2018-08-05 23:00:00 30.1 9 Este 21 Este 0 -- -- 45
2018-08-05 22:00:00 32.6 14 Este 28 Este 0 -- -- 38
2018-08-05 21:00:00 34.1 13 Este 19 Este 0 -- -- 34
2018-08-05 20:00:00 36.4 7 Nordeste 15 Nordeste 0 -- -- 28
2018-08-05 19:00:00 37 12 Nordeste 17 Nordeste 0 -- -- 28
2018-08-05 18:00:00 37.6 9 Nordeste 22 Oeste 0 -- -- 26
2018-08-05 17:00:00 37.9 12 Sudoeste 32 Sur 0 -- -- 24
2018-08-05 16:00:00 37.3 13 Sudoeste 24 Sudoeste 0 -- -- 24
2018-08-05 15:00:00 35.5 14 Nordeste 20 Este 0 -- -- 33
2018-08-05 14:00:00 34.5 13 Este 19 Nordeste 0 -- -- 36
2018-08-05 13:00:00 32.5 10 Este 17 Nordeste 0 -- -- 41
2018-08-05 12:00:00 30.7 5 Este 14 Este 0 -- -- 44
2018-08-05 11:00:00 29.1 8 Este 15 Este 0 -- -- 47
2018-08-05 10:00:00 26.4 8 Oeste 15 Sudoeste 0 -- -- 53
2018-08-05 09:00:00 24.8 3 Sudeste 8 Oeste 0 -- -- 55
2018-08-05 08:00:00 22.3 4 Oeste 8 Oeste 0 -- -- 63
2018-08-05 07:00:00 21.7 5 Oeste 14 Sudoeste 0 -- -- 66
2018-08-05 06:00:00 22 5 Oeste 6 Oeste 0 -- -- 66
2018-08-05 05:00:00 23.3 6 Oeste 12 Sudoeste 0 -- -- 62
2018-08-05 04:00:00 24.5 6 Sudoeste 15 Sudoeste 0 -- -- 60
2018-08-05 03:00:00 25.5 5 Sudoeste 12 Sudoeste 0 -- -- 58
2018-08-05 02:00:00 27.1 9 Oeste 13 Oeste 0 -- -- 47
2018-08-05 01:00:00 28.6 6 Sudoeste 10 Sudoeste 0 -- -- 45
2018-08-05 00:00:00 29.2 2 Norte 7 Noroeste 0 -- -- 42
2018-08-04 23:00:00 31.5 5 Norte 14 Noroeste 0 -- -- 41
2018-08-04 22:00:00 32 3 Oeste 8 Oeste 0 -- -- 33
2018-08-04 21:00:00 35 3 Nordeste 8 Nordeste 0 -- -- 30
2018-08-04 20:00:00 36.7 5 Nordeste 10 Nordeste 0 -- -- 29
2018-08-04 19:00:00 37.4 8 Nordeste 13 Nordeste 0 -- -- 23
2018-08-04 18:00:00 37.8 9 Este 17 Este 0 -- -- 22
2018-08-04 17:00:00 38.1 6 Nordeste 18 Nordeste 0 -- -- 22
2018-08-04 16:00:00 37.5 10 Nordeste 18 Este 0 -- -- 24
2018-08-04 15:00:00 36.8 9 Este 20 Este 0 -- -- 26
2018-08-04 14:00:00 35.2 9 Este 17 Este 0 -- -- 34
2018-08-04 13:00:00 33.9 9 Este 17 Este 0 -- -- 39
2018-08-04 12:00:00 32 6 Sudeste 14 Sur 0 -- -- 41
2018-08-04 11:00:00 30.2 4 Este 12 Nordeste 0 -- -- 46
2018-08-04 10:00:00 27.6 6 Nordeste 13 Este 0 -- -- 53
2018-08-04 09:00:00 25.3 5 Sur 12 Sudoeste 0 -- -- 56
2018-08-04 08:00:00 23.2 5 Oeste 12 Sudoeste 0 -- -- 61
2018-08-04 07:00:00 23.5 8 Sudoeste 12 Oeste 0 -- -- 62
2018-08-04 06:00:00 23.8 5 Oeste 11 Noroeste 0 -- -- 65
2018-08-04 05:00:00 25 0 Calma 14 Nordeste 0 -- -- 62
2018-08-04 04:00:00 25.7 12 Nordeste 16 Nordeste 0 -- -- 60
2018-08-04 03:00:00 26.6 9 Nordeste 13 Nordeste 0 -- -- 54
2018-08-04 02:00:00 27.8 3 Este 15 Este 0 -- -- 49
2018-08-04 01:00:00 28.1 10 Este 14 Este 0 -- -- 49
2018-08-04 00:00:00 29.2 10 Este 23 Este 0 -- -- 51
2018-08-03 23:00:00 30.9 8 Sudeste 20 Sudeste 0 -- -- 50
2018-08-03 22:00:00 32.3 8 Sudeste 23 Sudeste 0 -- -- 46
2018-08-03 21:00:00 34.1 16 Sudeste 28 Este 0 -- -- 43
2018-08-03 20:00:00 35.4 15 Este 25 Este 0 -- -- 42
2018-08-03 19:00:00 37.5 9 Nordeste 15 Este 0 -- -- 31
2018-08-03 18:00:00 37.6 10 Nordeste 17 Nordeste 0 -- -- 32
2018-08-03 17:00:00 37.5 8 Nordeste 18 Norte 0 -- -- 32
2018-08-03 16:00:00 37 11 Nordeste 17 Nordeste 0 -- -- 33
2018-08-03 15:00:00 35.6 8 Este 19 Nordeste 0 -- -- 38
2018-08-03 14:00:00 34.2 10 Nordeste 21 Este 0 -- -- 41
2018-08-03 13:00:00 32.6 8 Este 15 Este 0 -- -- 46
2018-08-03 12:00:00 30.8 8 Este 14 Este 0 -- -- 51
2018-08-03 11:00:00 29 8 Nordeste 18 Nordeste 0 -- -- 57
2018-08-03 10:00:00 27.2 9 Nordeste 14 Nordeste 0 -- -- 62
2018-08-03 09:00:00 24.6 5 Este 8 Nordeste 0 -- -- 68
2018-08-03 08:00:00 22.4 4 Este 6 Este 0 -- -- 72
2018-08-03 07:00:00 20.9 3 Oeste 5 Oeste 0 -- -- 75
2018-08-03 06:00:00 21.8 2 Nordeste 5 Nordeste 0 -- -- 74
2018-08-03 05:00:00 22.7 0 Calma 10 Este 0 -- -- 70
2018-08-03 04:00:00 23.6 5 Nordeste 16 Nordeste 0 -- -- 68
2018-08-03 03:00:00 25.6 7 Este 18 Este 0 -- -- 59
2018-08-03 02:00:00 26.5 10 Nordeste 17 Este 0 -- -- 56
2018-08-03 01:00:00 27 11 Nordeste 17 Este 0 -- -- 55
2018-08-03 00:00:00 28.4 5 Este 12 Este 0 -- -- 49
2018-08-02 23:00:00 30.4 3 Noroeste 10 Sur 0 -- -- 42
2018-08-02 22:00:00 32 3 Este 14 Este 0 -- -- 38
2018-08-02 21:00:00 33 10 Nordeste 24 Este 0 -- -- 40
2018-08-02 20:00:00 36.1 17 Este 27 Este 0 -- -- 33
2018-08-02 19:00:00 37.9 9 Nordeste 13 Este 0 -- -- 30
2018-08-02 18:00:00 37.7 9 Nordeste 16 Este 0 -- -- 30
2018-08-02 17:00:00 37.6 9 Nordeste 18 Nordeste 0 -- -- 30
2018-08-02 16:00:00 36.9 8 Nordeste 23 Este 0 -- -- 31
2018-08-02 15:00:00 37 7 Sudoeste 18 Sudoeste 0 -- -- 29
2018-08-02 14:00:00 34.5 8 Este 15 Este 0 -- -- 40
2018-08-02 13:00:00 32.2 9 Nordeste 17 Este 0 -- -- 45
2018-08-02 12:00:00 30.5 9 Nordeste 15 Nordeste 0 -- -- 48
2018-08-02 11:00:00 28.9 7 Nordeste 12 Este 0 -- -- 50
2018-08-02 10:00:00 26.4 8 Nordeste 13 Nordeste 0 -- -- 59
2018-08-02 09:00:00 25 4 Este 9 Oeste 0 -- -- 61
2018-08-02 08:00:00 21.5 2 Oeste 4 Noroeste 0 -- -- 71
2018-08-02 07:00:00 20.3 0 Calma 4 Noroeste 0 -- -- 74
2018-08-02 06:00:00 21 2 Nordeste 6 Noroeste 0 -- -- 73
2018-08-02 05:00:00 21.8 2 Este 8 Nordeste 0 -- -- 71
2018-08-02 04:00:00 22.9 0 Calma 15 Nordeste 0 -- -- 68
2018-08-02 03:00:00 25 11 Nordeste 20 Este 0 -- -- 60
2018-08-02 02:00:00 26.1 13 Nordeste 19 Este 0 -- -- 55
2018-08-02 01:00:00 26.7 10 Nordeste 16 Nordeste 0 -- -- 49
2018-08-02 00:00:00 27.3 11 Nordeste 15 Nordeste 0 -- -- 48
2018-08-01 23:00:00 29.5 2 Sudeste 13 Nordeste 0 -- -- 42
2018-08-01 22:00:00 31.6 5 Sur 19 Sur 0 -- -- 36
2018-08-01 21:00:00 33.7 10 Sudeste 25 Sudeste 0 -- -- 32
2018-08-01 20:00:00 35.2 14 Este 27 Este 0 -- -- 31
2018-08-01 19:00:00 35.8 10 Nordeste 19 Nordeste 0 -- -- 36
2018-08-01 18:00:00 35.8 12 Nordeste 19 Nordeste 0 -- -- 37
2018-08-01 17:00:00 35.5 12 Nordeste 25 Este 0 -- -- 37
2018-08-01 16:00:00 34.9 14 Nordeste 21 Nordeste 0 -- -- 39
2018-08-01 15:00:00 34.5 12 Este 21 Este 0 -- -- 40
2018-08-01 14:00:00 32.8 12 Este 18 Este 0 -- -- 44
2018-08-01 13:00:00 31.3 10 Nordeste 18 Este 0 -- -- 49
2018-08-01 12:00:00 29.3 11 Este 16 Este 0 -- -- 55
2018-08-01 11:00:00 27.8 8 Este 13 Nordeste 0 -- -- 58
2018-08-01 10:00:00 25.7 6 Nordeste 12 Nordeste 0 -- -- 64
2018-08-01 09:00:00 24.5 4 Noroeste 9 Oeste 0 -- -- 67
2018-08-01 08:00:00 22 7 Sudoeste 12 Oeste 0 -- -- 73
2018-08-01 07:00:00 21.7 7 Oeste 12 Oeste 0 -- -- 74
2018-08-01 06:00:00 21.6 5 Noroeste 9 Oeste 0 -- -- 69
2018-08-01 05:00:00 22.2 0 Calma 5 Este 0 -- -- 65
2018-08-01 04:00:00 23.6 4 Nordeste 6 Noroeste 0 -- -- 61
2018-08-01 03:00:00 24.8 0 Calma 14 Este 0 -- -- 60
2018-08-01 02:00:00 26.2 5 Este 16 Sudeste 0 -- -- 53
2018-08-01 01:00:00 27.3 10 Este 23 Este 0 -- -- 51
2018-08-01 00:00:00 27.5 12 Este 20 Este 0 -- -- 52
2018-07-31 23:00:00 29.7 4 Sur 15 Sudeste 0 -- -- 44
2018-07-31 22:00:00 31.2 6 Sudeste 23 Sur 0 -- -- 40
2018-07-31 21:00:00 33.2 18 Sudeste 29 Sudeste 0 -- -- 39
2018-07-31 20:00:00 34.9 7 Nordeste 15 Nordeste 0 -- -- 37
2018-07-31 19:00:00 35.6 11 Nordeste 19 Nordeste 0 -- -- 34
2018-07-31 18:00:00 36.1 13 Nordeste 19 Nordeste 0 -- -- 34
2018-07-31 17:00:00 35.9 11 Nordeste 21 Nordeste 0 -- -- 35
2018-07-31 16:00:00 35.7 11 Nordeste 18 Este 0 -- -- 35
2018-07-31 15:00:00 34.5 9 Nordeste 20 Nordeste 0 -- -- 39
2018-07-31 14:00:00 33.6 11 Nordeste 19 Nordeste 0 -- -- 43
2018-07-31 13:00:00 31.7 8 Nordeste 18 Este 0 -- -- 48
2018-07-31 12:00:00 30 10 Nordeste 17 Nordeste 0 -- -- 52
2018-07-31 11:00:00 28.9 4 Nordeste 10 Noroeste 0 -- -- 56
2018-07-31 10:00:00 26.3 7 Este 11 Nordeste 0 -- -- 64
2018-07-31 09:00:00 24 4 Este 7 Nordeste 0 -- -- 69
2018-07-31 08:00:00 21 3 Sudeste 4 Sur 0 -- -- 78
2018-07-31 07:00:00 19.8 0 Calma 5 Oeste 0 -- -- 82
2018-07-31 06:00:00 20.4 0 Calma 6 Sudoeste 0 -- -- 78
2018-07-31 05:00:00 21.1 4 Oeste 6 Oeste 0 -- -- 77
2018-07-31 04:00:00 22.4 0 Calma 4 Sudeste 0 -- -- 72
2018-07-31 03:00:00 23.7 3 Sudeste 15 Este 0 -- -- 69
2018-07-31 02:00:00 25.4 9 Nordeste 15 Este 0 -- -- 62
2018-07-31 01:00:00 26 11 Nordeste 18 Este 0 -- -- 61
2018-07-31 00:00:00 26.9 8 Nordeste 17 Este 0 -- -- 56
2018-07-30 23:00:00 28.8 3 Oeste 13 Sur 0 -- -- 44
2018-07-30 22:00:00 30.6 4 Sur 17 Sur 0 -- -- 39
2018-07-30 21:00:00 32.5 11 Sudeste 27 Sudeste 0 -- -- 35
2018-07-30 20:00:00 34.5 18 Este 31 Este 0 -- -- 33
2018-07-30 19:00:00 35.3 17 Este 31 Este 0 -- -- 38
2018-07-30 18:00:00 36 20 Este 29 Este 0 -- -- 37
2018-07-30 17:00:00 36.3 14 Este 27 Este 0 -- -- 34
2018-07-30 16:00:00 35.1 14 Este 24 Este 0 -- -- 37
2018-07-30 15:00:00 34.5 15 Este 24 Este 0 -- -- 40
2018-07-30 14:00:00 33.6 10 Este 21 Este 0 -- -- 44
2018-07-30 13:00:00 31.8 11 Nordeste 21 Este 0 -- -- 50
2018-07-30 12:00:00 30 10 Este 18 Nordeste 0 -- -- 59
2018-07-30 11:00:00 27.8 9 Nordeste 15 Nordeste 0 -- -- 67
2018-07-30 10:00:00 26.5 7 Este 12 Nordeste 0 -- -- 71
2018-07-30 09:00:00 24.3 5 Nordeste 8 Nordeste 0 -- -- 72
2018-07-30 08:00:00 21.7 2 Este 4 Este 0 -- -- 82
2018-07-30 07:00:00 20.7 0 Calma 7 Nordeste 0 -- -- 85
2018-07-30 06:00:00 22 2 Este 8 Este 0 -- -- 82
2018-07-30 05:00:00 22.2 0 Calma 5 Este 0 -- -- 82
2018-07-30 04:00:00 23.2 2 Noroeste 8 Este 0 -- -- 78
2018-07-30 03:00:00 24 2 Este 9 Este 0 -- -- 75
2018-07-30 02:00:00 25 2 Norte 8 Nordeste 0 -- -- 70
2018-07-30 01:00:00 26.7 3 Oeste 10 Sudoeste 0 -- -- 61
2018-07-30 00:00:00 28.6 3 Sudoeste 10 Sudoeste 0 -- -- 55
2018-07-29 23:00:00 29.1 3 Norte 8 Noroeste 0 -- -- 51
2018-07-29 22:00:00 30.3 2 Este 10 Este 0 -- -- 41
2018-07-29 21:00:00 33.2 8 Este 14 Este 0 -- -- 36
2018-07-29 20:00:00 33.9 10 Este 19 Este 0 -- -- 38
2018-07-29 19:00:00 34.8 14 Este 20 Nordeste 0 -- -- 36
2018-07-29 18:00:00 35.1 13 Este 21 Este 0 -- -- 36
2018-07-29 17:00:00 35.1 14 Nordeste 24 Este 0 -- -- 36
2018-07-29 16:00:00 35.2 12 Nordeste 32 Sur 0 -- -- 36
2018-07-29 15:00:00 34.1 6 Nordeste 27 Este 0 -- -- 41
2018-07-29 14:00:00 32.9 12 Este 24 Nordeste 0 -- -- 45
2018-07-29 13:00:00 31.1 10 Nordeste 22 Este 0 -- -- 54
2018-07-29 12:00:00 29.6 6 Este 18 Este 0 -- -- 60
2018-07-29 11:00:00 27.9 12 Este 20 Este 0 -- -- 65
2018-07-29 10:00:00 26.1 11 Nordeste 19 Nordeste 0 -- -- 71
2018-07-29 09:00:00 24.3 4 Este 11 Nordeste 0 -- -- 76
2018-07-29 08:00:00 22.5 8 Nordeste 18 Nordeste 0 -- -- 82
2018-07-29 07:00:00 22.2 10 Este 18 Este 0 -- -- 83
2018-07-29 06:00:00 22.5 8 Este 16 Este 0 -- -- 82
2018-07-29 05:00:00 22.7 9 Este 18 Este 0 -- -- 82
2018-07-29 04:00:00 23.3 13 Este 23 Este 0 -- -- 81
2018-07-29 03:00:00 24 13 Este 32 Este 0 -- -- 78
2018-07-29 02:00:00 25.1 13 Este 27 Este 0 -- -- 75
2018-07-29 01:00:00 25.7 12 Este 24 Nordeste 0 -- -- 71
2018-07-29 00:00:00 27.2 5 Sur 22 Sur 0 -- -- 60
2018-07-28 23:00:00 28.6 12 Sudeste 27 Sudeste 0 -- -- 58
2018-07-28 22:00:00 30.8 9 Sudeste 17 Este 0 -- -- 50
2018-07-28 21:00:00 33.1 0 Calma 14 Este 0 -- -- 33
2018-07-28 20:00:00 34.1 5 Nordeste 18 Nordeste 0 -- -- 31
2018-07-28 19:00:00 34.8 10 Nordeste 22 Nordeste 0 -- -- 30
2018-07-28 18:00:00 34.9 12 Nordeste 21 Nordeste 0 -- -- 31
2018-07-28 17:00:00 35.1 11 Norte 26 Nordeste 0 -- -- 32
2018-07-28 16:00:00 34.7 11 Nordeste 22 Nordeste 0 -- -- 31
2018-07-28 15:00:00 33.7 15 Noroeste 25 Noroeste 0 -- -- 32
2018-07-28 14:00:00 32.8 10 Oeste 28 Oeste 0 -- -- 35
2018-07-28 13:00:00 30.6 9 Oeste 21 Oeste 0 -- -- 44
2018-07-28 12:00:00 29.4 7 Oeste 20 Noroeste 0 -- -- 47
2018-07-28 11:00:00 27.4 7 Sudeste 13 Nordeste 0 -- -- 51
2018-07-28 10:00:00 25.5 6 Noroeste 17 Noroeste 0 -- -- 58
2018-07-28 09:00:00 22.6 3 Este 8 Este 0 -- -- 68
2018-07-28 08:00:00 19.6 4 Noroeste 5 Noroeste 0 -- -- 71
2018-07-28 07:00:00 19.4 0 Calma 8 Oeste 0 -- -- 71
2018-07-28 06:00:00 20 3 Oeste 7 Oeste 0 -- -- 67
2018-07-28 05:00:00 20.8 0 Calma 5 Noroeste 0 -- -- 65
2018-07-28 04:00:00 22 0 Calma 5 Sudeste 0 -- -- 62
2018-07-28 03:00:00 23.2 3 Este 12 Nordeste 0 -- -- 61
2018-07-28 02:00:00 24.4 8 Nordeste 14 Nordeste 0 -- -- 54
2018-07-28 01:00:00 24.9 6 Nordeste 18 Este 0 -- -- 55
2018-07-28 00:00:00 25.8 12 Este 23 Este 0 -- -- 58
2018-07-27 23:00:00 26.8 13 Este 24 Este 0 -- -- 59
2018-07-27 22:00:00 28.5 14 Este 26 Este 0 -- -- 51
2018-07-27 21:00:00 29.8 13 Este 31 Este 0 -- -- 46
2018-07-27 20:00:00 31.8 19 Este 28 Este 0 -- -- 41
2018-07-27 19:00:00 33.4 21 Este 33 Este 0 -- -- 39
2018-07-27 18:00:00 35 21 Este 32 Este 0 -- -- 39
2018-07-27 17:00:00 35.8 21 Este 34 Este 0 -- -- 38
2018-07-27 16:00:00 35 14 Este 25 Este 0 -- -- 41
2018-07-27 15:00:00 32.7 12 Nordeste 24 Este 0 -- -- 48
2018-07-27 14:00:00 31.9 11 Este 21 Este 0 -- -- 52
2018-07-27 13:00:00 30.5 11 Este 20 Este 0 -- -- 56
2018-07-27 12:00:00 28.5 9 Nordeste 16 Este 0 -- -- 63
2018-07-27 11:00:00 27.1 8 Nordeste 15 Nordeste 0 -- -- 67
2018-07-27 10:00:00 25.3 7 Nordeste 12 Nordeste 0 -- -- 70
2018-07-27 09:00:00 23.7 5 Nordeste 8 Nordeste 0 -- -- 68
2018-07-27 08:00:00 20.7 6 Oeste 8 Oeste 0 -- -- 80
2018-07-27 07:00:00 19.4 4 Noroeste 5 Oeste 0 -- -- 84
2018-07-27 06:00:00 20.1 3 Este 6 Noroeste 0 -- -- 80
2018-07-27 05:00:00 21 4 Norte 19 Nordeste 0 -- -- 75
2018-07-27 04:00:00 21.9 19 Este 43 Este 0 -- -- 70
2018-07-27 03:00:00 24.1 23 Este 35 Este 0 -- -- 56
2018-07-27 02:00:00 22.9 4 Nordeste 27 Noroeste 1.2 -- -- 77
2018-07-27 01:00:00 25.5 9 Este 24 Nordeste 0 -- -- 59
2018-07-27 00:00:00 26.1 8 Este 23 Este 0 -- -- 63
2018-07-26 23:00:00 27 13 Este 21 Nordeste 0 -- -- 60
2018-07-26 22:00:00 28.7 4 Sur 12 Nordeste 0 -- -- 55
2018-07-26 21:00:00 30 10 Este 23 Sudeste 0 -- -- 52
2018-07-26 20:00:00 34 14 Este 31 Este 0 -- -- 35
2018-07-26 19:00:00 35.6 21 Este 32 Este 0 -- -- 34
2018-07-26 18:00:00 36.7 19 Este 28 Este 0 -- -- 31
2018-07-26 17:00:00 36.4 17 Este 24 Este 0 -- -- 31
2018-07-26 16:00:00 35.9 13 Este 24 Este 0 -- -- 31
2018-07-26 15:00:00 34.8 11 Nordeste 25 Este 0 -- -- 30
2018-07-26 14:00:00 33 12 Este 21 Este 0 -- -- 34
2018-07-26 13:00:00 31 10 Este 22 Este 0 -- -- 40
2018-07-26 12:00:00 29.7 13 Nordeste 19 Este 0 -- -- 43
2018-07-26 11:00:00 27.3 9 Este 14 Nordeste 0 -- -- 46
2018-07-26 10:00:00 24.9 6 Nordeste 13 Este 0 -- -- 54
2018-07-26 09:00:00 23.1 6 Nordeste 10 Nordeste 0 -- -- 65
2018-07-26 08:00:00 20.6 0 Calma 4 Oeste 0 -- -- 70
2018-07-26 07:00:00 19 0 Calma 3 Noroeste 0 -- -- 73
2018-07-26 06:00:00 19.4 0 Calma 5 Este 0 -- -- 74
2018-07-26 05:00:00 20.3 0 Calma 5 Noroeste 0 -- -- 71
2018-07-26 04:00:00 21.1 0 Calma 3 Noroeste 0 -- -- 69
2018-07-26 03:00:00 23 0 Calma 17 Este 0 -- -- 64
2018-07-26 02:00:00 24.1 9 Este 17 Este 0 -- -- 64
2018-07-26 01:00:00 24.9 11 Este 25 Este 0 -- -- 65
2018-07-26 00:00:00 25.5 14 Este 23 Sudeste 0 -- -- 67
2018-07-25 23:00:00 26.7 10 Este 18 Este 0 -- -- 62
2018-07-25 22:00:00 29.1 5 Sudeste 24 Sudeste 0 -- -- 51
2018-07-25 21:00:00 31.3 14 Sudeste 28 Este 0 -- -- 45
2018-07-25 20:00:00 33.1 17 Este 31 Este 0 -- -- 40
2018-07-25 19:00:00 34.1 18 Este 35 Este 0 -- -- 43
2018-07-25 18:00:00 35 22 Este 35 Sudeste 0 -- -- 40
2018-07-25 17:00:00 34.9 6 Norte 18 Nordeste 0 -- -- 42
2018-07-25 16:00:00 33.4 10 Nordeste 21 Nordeste -- -- -- 45
2018-07-25 15:00:00 32.5 10 Este 19 Nordeste 0 -- -- 47
2018-07-25 14:00:00 31.2 9 Nordeste 21 Este 0 -- -- 49
2018-07-25 13:00:00 30 11 Este 22 Nordeste 0 -- -- 52
2018-07-25 12:00:00 28.7 12 Este 19 Nordeste 0 -- -- 53
2018-07-25 11:00:00 27.2 6 Nordeste 14 Este 0 -- -- 61
2018-07-25 10:00:00 25.3 6 Este 12 Nordeste 0 -- -- 64
2018-07-25 09:00:00 23.4 8 Nordeste 13 Nordeste 0 -- -- 68
2018-07-25 08:00:00 21.5 0 Calma 6 Oeste 0 -- -- 77
2018-07-25 07:00:00 19.9 0 Calma 5 Noroeste 0 -- -- 79
2018-07-25 06:00:00 20.6 0 Calma 5 Este 0 -- -- 80
2018-07-25 05:00:00 21.4 0 Calma 6 Sur 0 -- -- 78
2018-07-25 04:00:00 22.3 4 Nordeste 8 Nordeste 0 -- -- 74
2018-07-25 03:00:00 22.8 2 Noroeste 9 Nordeste 0 -- -- 70
2018-07-25 02:00:00 23.7 6 Nordeste 14 Este 0 -- -- 67
2018-07-25 01:00:00 24.6 8 Este 16 Este 0 -- -- 63
2018-07-25 00:00:00 24.9 9 Este 17 Este 0 -- -- 61
2018-07-24 23:00:00 25.6 10 Este 18 Nordeste 0 -- -- 59
2018-07-24 22:00:00 26.7 10 Este 32 Este 0 -- -- 54
2018-07-24 21:00:00 27.9 24 Este 57 Este 0 -- -- 47
2018-07-24 20:00:00 33 25 Nordeste 54 Este 0 -- -- 40
2018-07-24 19:00:00 35.7 11 Nordeste 22 Nordeste 0 -- -- 34
2018-07-24 18:00:00 36.1 8 Nordeste 22 Nordeste 0 -- -- 34
2018-07-24 17:00:00 35.7 10 Nordeste 21 Nordeste 0 -- -- 37
2018-07-24 16:00:00 34.8 11 Nordeste 24 Este 0 -- -- 40
2018-07-24 15:00:00 33.9 12 Este 24 Nordeste 0 -- -- 45
2018-07-24 14:00:00 32.5 15 Este 25 Este 0 -- -- 48
2018-07-24 13:00:00 31.6 18 Este 25 Este 0 -- -- 51
2018-07-24 12:00:00 29.8 15 Este 27 Este 0 -- -- 56
2018-07-24 11:00:00 28.3 18 Este 26 Nordeste 0 -- -- 62
2018-07-24 10:00:00 26.7 14 Este 21 Nordeste 0 -- -- 65
2018-07-24 09:00:00 24.2 5 Nordeste 9 Nordeste 0 -- -- 74
2018-07-24 08:00:00 22.3 5 Nordeste 12 Nordeste 0 -- -- 82
2018-07-24 07:00:00 21.5 7 Nordeste 14 Nordeste 0 -- -- 86
2018-07-24 06:00:00 21.6 7 Nordeste 12 Nordeste 0 -- -- 86
2018-07-24 05:00:00 22.4 5 Nordeste 13 Este 0 -- -- 83
2018-07-24 04:00:00 22.7 8 Nordeste 13 Nordeste 0 -- -- 81
2018-07-24 03:00:00 23.1 7 Nordeste 13 Nordeste 0 -- -- 81
2018-07-24 02:00:00 23.9 9 Nordeste 15 Nordeste 0 -- -- 75
2018-07-24 01:00:00 24.5 11 Este 17 Este 0 -- -- 74
2018-07-24 00:00:00 26.1 5 Nordeste 10 Nordeste 0 -- -- 70
2018-07-23 23:00:00 27.8 4 Sudeste 17 Sur 0 -- -- 62
2018-07-23 22:00:00 29.2 12 Sur 25 Sudeste 0 -- -- 57
2018-07-23 21:00:00 31.3 13 Este 28 Este 0 -- -- 50
2018-07-23 20:00:00 33.1 14 Este 22 Este 0 -- -- 37
2018-07-23 19:00:00 33.9 14 Este 19 Este 0 -- -- 36
2018-07-23 18:00:00 34.2 12 Nordeste 21 Este 0 -- -- 36
2018-07-23 17:00:00 33.3 12 Este 18 Este 0 -- -- 36
2018-07-23 16:00:00 32.8 11 Este 18 Este 0 -- -- 37
2018-07-23 15:00:00 31.4 10 Nordeste 19 Este 0 -- -- 40
2018-07-23 14:00:00 30.4 8 Nordeste 19 Este 0 -- -- 42
2018-07-23 13:00:00 28.8 8 Este 17 Nordeste 0 -- -- 47
2018-07-23 12:00:00 27.3 5 Nordeste 14 Nordeste 0 -- -- 52
2018-07-23 11:00:00 25.4 6 Sudeste 12 Sur 0 -- -- 58
2018-07-23 10:00:00 22.8 6 Nordeste 12 Oeste 0 -- -- 66
2018-07-23 09:00:00 20.7 5 Este 14 Noroeste 0 -- -- 71
2018-07-23 08:00:00 19.1 7 Oeste 12 Sudoeste 0 -- -- 75
2018-07-23 07:00:00 17.4 9 Oeste 15 Oeste 0 -- -- 77
2018-07-23 06:00:00 17 4 Oeste 15 Sudoeste 0 -- -- 75
2018-07-23 05:00:00 18 9 Oeste 14 Oeste 0 -- -- 70
2018-07-23 04:00:00 18.4 6 Oeste 9 Oeste 0 -- -- 67
2018-07-23 03:00:00 18.9 5 Noroeste 8 Oeste 0 -- -- 66
2018-07-23 02:00:00 20.4 7 Oeste 14 Oeste 0 -- -- 61
2018-07-23 01:00:00 22 4 Oeste 11 Oeste 0 -- -- 55
2018-07-23 00:00:00 24 10 Oeste 18 Oeste 0 -- -- 50
2018-07-22 23:00:00 25.8 9 Sudoeste 19 Sudeste 0 -- -- 45
2018-07-22 22:00:00 27.2 12 Sur 17 Sur 0 -- -- 42
2018-07-22 21:00:00 28.2 8 Este 15 Este 0 -- -- 44
2018-07-22 20:00:00 29.4 10 Este 15 Este 0 -- -- 42
2018-07-22 19:00:00 29.6 9 Este 22 Este 0 -- -- 40
2018-07-22 18:00:00 29.4 10 Sudeste 26 Sudeste 0 -- -- 40
2018-07-22 17:00:00 29.4 11 Sur 26 Sur 0 -- -- 40
2018-07-22 16:00:00 28.7 14 Sur 23 Sur 0 -- -- 40
2018-07-22 15:00:00 27.4 12 Sur 21 Sur 0 -- -- 45
2018-07-22 14:00:00 25.7 14 Sur 25 Sudeste 0 -- -- 52
2018-07-22 13:00:00 25.1 6 Sudoeste 22 Sur 0 -- -- 49
2018-07-22 12:00:00 23.7 7 Este 18 Nordeste 0 -- -- 57
2018-07-22 11:00:00 23.1 8 Este 13 Este 0 -- -- 60
2018-07-22 10:00:00 20.8 6 Sur 17 Sudoeste 0 -- -- 70
2018-07-22 09:00:00 18.1 9 Oeste 15 Sudoeste 0 -- -- 83
2018-07-22 08:00:00 17.5 6 Sudoeste 17 Sudoeste 0.2 -- -- 85
2018-07-22 07:00:00 17.2 9 Sudoeste 17 Oeste 0.8 -- -- 86
2018-07-22 06:00:00 18.8 8 Sur 30 Oeste 0 -- -- 73
2018-07-22 05:00:00 19.8 13 Oeste 25 Noroeste 0 -- -- 68
2018-07-22 04:00:00 21.6 14 Noroeste 24 Noroeste 0 -- -- 56
2018-07-22 03:00:00 22.1 2 Sur 12 Noroeste 0 -- -- 51
2018-07-22 02:00:00 22.7 13 Oeste 30 Oeste 0 -- -- 48
2018-07-22 01:00:00 22.9 12 Oeste 32 Sudoeste 0 -- -- 48
2018-07-22 00:00:00 23.6 19 Oeste 27 Oeste 0 -- -- 47
2018-07-21 23:00:00 24.2 21 Oeste 31 Sudoeste 0 -- -- 48
2018-07-21 22:00:00 24.5 12 Oeste 28 Sudoeste 0 -- -- 47
2018-07-21 21:00:00 25.5 16 Oeste 24 Oeste 0 -- -- 45
2018-07-21 20:00:00 26.8 17 Oeste 30 Oeste 0 -- -- 42
2018-07-21 19:00:00 27.9 17 Noroeste 32 Oeste 0 -- -- 38
2018-07-21 18:00:00 28.7 14 Noroeste 30 Noroeste 0 -- -- 39
2018-07-21 17:00:00 29.3 8 Noroeste 19 Este 0 -- -- 38
2018-07-21 16:00:00 28.5 12 Nordeste 22 Este 0 -- -- 43
2018-07-21 15:00:00 27.7 12 Nordeste 20 Nordeste 0 -- -- 46
2018-07-21 14:00:00 27.1 7 Norte 21 Nordeste 0 -- -- 46
2018-07-21 13:00:00 26.1 5 Nordeste 17 Noroeste 0 -- -- 52
2018-07-21 12:00:00 24.6 10 Sur 18 Oeste 0 -- -- 52
2018-07-21 11:00:00 22.5 3 Nordeste 16 Oeste 0 -- -- 60
2018-07-21 10:00:00 21.4 4 Norte 19 Sur 0 -- -- 63
2018-07-21 09:00:00 19.5 10 Sudoeste 16 Sudoeste 0 -- -- 71
2018-07-21 08:00:00 17.7 7 Sudoeste 14 Sudoeste 0 -- -- 77
2018-07-21 07:00:00 16.5 5 Oeste 15 Sur 0 -- -- 82
2018-07-21 06:00:00 17.2 8 Sudoeste 19 Sudoeste 0 -- -- 80
2018-07-21 05:00:00 17.6 10 Sudoeste 17 Sudoeste 0 -- -- 80
2018-07-21 04:00:00 18.3 9 Sudoeste 18 Sudoeste 0 -- -- 78
2018-07-21 03:00:00 19 12 Sudoeste 23 Sudoeste 0 -- -- 78
2018-07-21 02:00:00 19.9 18 Sudoeste 39 Oeste 0 -- -- 77
2018-07-21 01:00:00 20.5 30 Oeste 44 Sudoeste 0 -- -- 74
2018-07-21 00:00:00 21.6 12 Sudoeste 26 Sur 0 -- -- 74
2018-07-20 23:00:00 21 14 Sudoeste 25 Sudoeste 0 -- -- 81
2018-07-20 22:00:00 22 8 Norte 26 Este 0.8 -- -- 79
2018-07-20 21:00:00 24.5 6 Sudeste 63 Este 0 -- -- 55
2018-07-20 20:00:00 29.4 5 Oeste 24 Este 0 -- -- 48
2018-07-20 19:00:00 31.6 4 Norte 15 Nordeste 0 -- -- 41
2018-07-20 18:00:00 33.2 9 Norte 21 Norte 0 -- -- 38
2018-07-20 17:00:00 32.3 10 Este 22 Este 0 -- -- 42
2018-07-20 16:00:00 32.1 12 Nordeste 22 Este 0 -- -- 45
2018-07-20 15:00:00 31.1 13 Oeste 23 Noroeste 0 -- -- 45
2018-07-20 14:00:00 30.3 5 Nordeste 21 Sudoeste 0 -- -- 50
2018-07-20 13:00:00 28.6 11 Sudoeste 23 Sudoeste 0 -- -- 54
2018-07-20 12:00:00 27.9 9 Sudeste 19 Sudeste 0 -- -- 57
2018-07-20 11:00:00 26 6 Sur 15 Este 0 -- -- 62
2018-07-20 10:00:00 24.1 8 Nordeste 13 Este 0 -- -- 67
2018-07-20 09:00:00 22.4 6 Nordeste 9 Nordeste 0 -- -- 71
2018-07-20 08:00:00 20.5 0 Calma 5 Sur 0 -- -- 75
2018-07-20 07:00:00 19.2 0 Calma 10 Sudoeste 0 -- -- 76
2018-07-20 06:00:00 19.3 2 Este 5 Noroeste 0 -- -- 74
2018-07-20 05:00:00 19.8 0 Calma 6 Este 0 -- -- 74
2018-07-20 04:00:00 20.7 0 Calma 5 Nordeste 0 -- -- 69
2018-07-20 03:00:00 22.2 3 Sudoeste 12 Este 0 -- -- 64
2018-07-20 02:00:00 22.9 7 Este 19 Noroeste 0 -- -- 65
2018-07-20 01:00:00 24.3 7 Nordeste 13 Nordeste 0 -- -- 61
2018-07-20 00:00:00 25 7 Nordeste 31 Este 0 -- -- 56